Time;durP1;ratioP1;P1;durP2;ratioP2;P2;SDS_P1;SDS_P2;PMS_P1;PMS_P2;Temp;Humidity;BMP_temperature;BMP_pressure;BME280_temperature;BME280_humidity;BME280_pressure;Samples;Min_cycle;Max_cycle;Signal;HPM_P1;HPM_P2
2023/10/09 00:02:26;;;;;;;;;;;;;;;;;;;;;
2023/10/09 00:24:50;;;;;;;29.45;10.23;;;;;;;-145.67;100.00;66521.78;4746720;29;20047;-94
2023/10/09 09:16:30;;;;;;;22.73;6.97;;;;;;;-145.67;100.00;66521.78;5810397;22;20055;-93
2023/10/09 09:19:17;;;;;;;20.75;6.88;;;;;;;-145.67;100.00;66521.78;5021960;28;20036;-93
2023/10/09 09:21:51;;;;;;;22.38;7.05;;;;;;;-145.67;100.00;66521.78;5008656;28;20112;-93
2023/10/09 09:27:09;;;;;;;21.50;7.40;;;;;;;-145.67;100.00;66521.78;5041131;28;20053;-94
2023/10/09 09:29:55;;;;;;;28.27;7.55;;;;;;;-145.67;100.00;66521.78;5022230;28;20029;-93
2023/10/09 09:32:38;;;;;;;26.23;8.05;;;;;;;-145.67;100.00;66521.78;5039698;28;20044;-92
2023/10/09 09:35:05;;;;;;;24.02;7.25;;;;;;;-145.67;100.00;66521.78;5024680;28;20431;-93
2023/10/09 11:32:32;;;;;;;21.15;6.50;;;;;;;-145.67;100.00;66521.78;5007251;28;20069;-93
2023/10/09 12:20:34;;;;;;;19.60;7.25;;;;;;;-145.67;100.00;66521.78;4999283;28;20097;-90
2023/10/09 12:23:04;;;;;;;22.30;7.15;;;;;;;-145.67;100.00;66521.78;4983388;28;20038;-89
2023/10/09 12:25:32;;;;;;;20.55;7.22;;;;;;;-145.67;100.00;66521.78;4966776;28;20144;-91
2023/10/09 12:28:03;;;;;;;25.25;7.63;;;;;;;-145.67;100.00;66521.78;4998641;28;20030;-92
2023/10/09 12:30:30;;;;;;;19.55;7.05;;;;;;;-145.67;100.00;66521.78;4969009;28;20045;-91
2023/10/09 12:32:58;;;;;;;19.70;6.85;;;;;;;-145.67;100.00;66521.78;4966194;28;20038;-91
2023/10/09 12:35:27;;;;;;;17.45;6.53;;;;;;;-145.67;100.00;66521.78;4966672;28;20082;-91
2023/10/09 12:37:58;;;;;;;20.25;7.15;;;;;;;-145.67;100.00;66521.78;4966371;28;20030;-92
2023/10/09 12:40:24;;;;;;;19.13;7.18;;;;;;;-145.67;100.00;66521.78;4965853;28;20030;-91
2023/10/09 12:42:55;;;;;;;19.50;6.63;;;;;;;-145.67;100.00;66521.78;4965814;28;20090;-92
2023/10/09 12:45:26;;;;;;;22.15;7.22;;;;;;;-145.67;100.00;66521.78;4966663;28;20097;-91
2023/10/09 12:47:58;;;;;;;22.08;7.22;;;;;;;-145.67;100.00;66521.78;4983015;28;20030;-92
2023/10/09 12:50:27;;;;;;;18.58;7.10;;;;;;;-145.67;100.00;66521.78;4982125;28;20073;-91
2023/10/09 12:52:55;;;;;;;19.67;6.95;;;;;;;-145.67;100.00;66521.78;4965767;28;20109;-93
2023/10/09 12:55:21;;;;;;;17.92;6.93;;;;;;;-145.67;100.00;66521.78;4977272;28;20025;-92
2023/10/09 12:57:51;;;;;;;18.40;6.82;;;;;;;-145.67;100.00;66521.78;4994172;28;20014;-93
2023/10/09 13:00:25;;;;;;;20.90;6.75;;;;;;;-145.67;100.00;66521.78;4975177;28;20038;-92
2023/10/09 13:02:51;;;;;;;20.83;7.03;;;;;;;-145.67;100.00;66521.78;4977651;28;20166;-91
2023/10/09 13:06:35;;;;;;;26.67;8.05;;;;;;;-145.67;100.00;66521.78;4960763;28;20406;-92
2023/10/09 13:08:52;;;;;;;17.15;6.32;;;;;;;-145.67;100.00;66521.78;4961115;28;20101;-91
2023/10/09 13:11:19;;;;;;;23.77;6.82;;;;;;;-145.67;100.00;66521.78;4975091;28;20078;-93
2023/10/09 13:13:54;;;;;;;24.65;6.68;;;;;;;-145.67;100.00;66521.78;4957950;28;20030;-92
2023/10/09 13:16:38;;;;;;;18.15;6.95;;;;;;;-145.67;100.00;66521.78;4942813;28;20067;-92
2023/10/09 13:19:09;;;;;;;21.17;7.10;;;;;;;-145.67;100.00;66521.78;4957952;28;20449;-91
2023/10/09 13:21:38;;;;;;;23.35;7.18;;;;;;;-145.67;100.00;66521.78;4957941;28;20049;-92
2023/10/09 13:24:05;;;;;;;19.42;7.38;;;;;;;-145.67;100.00;66521.78;4941833;28;20042;-91
2023/10/09 13:26:32;;;;;;;19.52;6.80;;;;;;;-145.67;100.00;66521.78;4974402;28;20085;-91
2023/10/09 13:29:01;;;;;;;21.63;7.20;;;;;;;-145.67;100.00;66521.78;4958551;28;20388;-92
2023/10/09 13:31:27;;;;;;;25.27;7.32;;;;;;;-145.67;100.00;66521.78;4924838;28;20490;-91
2023/10/09 13:33:58;;;;;;;21.00;7.57;;;;;;;-145.67;100.00;66521.78;4957976;28;20114;-91
2023/10/09 13:36:27;;;;;;;;;;;;;;;-145.67;100.00;66521.78;4959420;28;20063;-92
2023/10/09 22:04:01;;;;;;;22.95;8.45;;;;;;;-145.67;100.00;66521.78;5932980;22;20294;-91
2023/10/09 22:06:30;;;;;;;21.67;8.05;;;;;;;-145.67;100.00;66521.78;5041504;28;20044;-93
2023/10/09 22:08:56;;;;;;;20.17;7.40;;;;;;;-145.67;100.00;66521.78;5032147;28;20041;-92
2023/10/09 22:11:22;;;;;;;18.85;9.10;;;;;;;-145.67;100.00;66521.78;5042708;28;20025;-91
2023/10/09 22:13:48;;;;;;;21.98;9.25;;;;;;;-145.67;100.00;66521.78;5045294;28;20060;-91
2023/10/09 22:16:14;;;;;;;29.20;9.30;;;;;;;-145.67;100.00;66521.78;5062045;28;20013;-91
2023/10/09 22:18:40;;;;;;;23.77;9.23;;;;;;;-145.67;100.00;66521.78;5051922;28;20136;-91
2023/10/09 22:24:39;;;;;;;26.70;9.75;;;;;;;-145.67;100.00;66521.78;4956328;28;20035;-92
2023/10/09 22:27:10;;;;;;;22.13;8.73;;;;;;;-145.67;100.00;66521.78;4941833;28;20107;-91
2023/10/09 22:29:45;;;;;;;25.23;9.00;;;;;;;-145.67;100.00;66521.78;5057232;28;20037;-92
2023/10/09 22:32:16;;;;;;;23.48;9.65;;;;;;;-145.67;100.00;66521.78;5019001;28;20037;-92
2023/10/09 22:34:43;;;;;;;19.45;9.02;;;;;;;-145.67;100.00;66521.78;5019255;28;20108;-90
2023/10/09 22:37:18;;;;;;;27.20;10.40;;;;;;;-145.67;100.00;66521.78;5036161;28;20044;-91
2023/10/09 22:39:46;;;;;;;23.33;10.20;;;;;;;-145.67;100.00;66521.78;5056168;28;20025;-91
2023/10/09 22:42:16;;;;;;;21.80;10.43;;;;;;;-145.67;100.00;66521.78;5039091;28;20024;-92
2023/10/09 22:44:47;;;;;;;18.53;11.03;;;;;;;-145.67;100.00;66521.78;5022519;28;20035;-91
2023/10/09 22:47:14;;;;;;;21.52;10.65;;;;;;;-145.67;100.00;66521.78;5038190;28;20067;-90
2023/10/09 22:49:42;;;;;;;22.30;11.60;;;;;;;-145.67;100.00;66521.78;5038548;28;20032;-91
2023/10/09 22:52:10;;;;;;;23.27;12.23;;;;;;;-145.67;100.00;66521.78;5056195;28;20482;-92
2023/10/09 22:54:42;;;;;;;25.85;12.35;;;;;;;-145.67;100.00;66521.78;5048292;28;20032;-90
2023/10/09 22:57:08;;;;;;;19.98;11.65;;;;;;;-145.67;100.00;66521.78;5002512;28;20029;-91
2023/10/09 22:59:44;;;;;;;22.70;11.48;;;;;;;-145.67;100.00;66521.78;5027842;28;20043;-91
2023/10/09 23:02:25;;;;;;;23.95;10.90;;;;;;;-145.67;100.00;66521.78;5022529;28;20025;-93
2023/10/09 23:04:55;;;;;;;21.48;11.77;;;;;;;-145.67;100.00;66521.78;5030472;28;20425;-91
2023/10/09 23:07:22;;;;;;;23.08;11.43;;;;;;;-145.67;100.00;66521.78;5021777;28;20079;-92
2023/10/09 23:09:53;;;;;;;17.73;11.05;;;;;;;-145.67;100.00;66521.78;5021334;28;20411;-91
2023/10/09 23:12:35;;;;;;;23.67;11.00;;;;;;;-145.67;100.00;66521.78;5038085;28;20112;-92
2023/10/09 23:15:08;;;;;;;20.00;10.25;;;;;;;-145.67;100.00;66521.78;5065736;28;20271;-91
2023/10/09 23:17:44;;;;;;;20.35;10.40;;;;;;;-145.67;100.00;66521.78;5061993;28;20025;-90
2023/10/09 23:20:17;;;;;;;22.08;10.38;;;;;;;-145.67;100.00;66521.78;5048392;28;20036;-92
2023/10/09 23:22:49;;;;;;;25.35;11.10;;;;;;;-145.67;100.00;66521.78;5039543;28;20033;-92
2023/10/09 23:25:29;;;;;;;22.42;10.73;;;;;;;-145.67;100.00;66521.78;5051437;28;20021;-93
2023/10/09 23:30:40;;;;;;;24.80;10.15;;;;;;;-145.67;100.00;66521.78;5060264;28;20111;-91
2023/10/09 23:33:11;;;;;;;23.15;10.00;;;;;;;-145.67;100.00;66521.78;5041046;28;20064;-92
2023/10/09 23:35:45;;;;;;;20.40;9.52;;;;;;;-145.67;100.00;66521.78;5058710;28;20025;-93
2023/10/09 23:38:18;;;;;;;17.40;9.85;;;;;;;-145.67;100.00;66521.78;5052436;28;20041;-92
2023/10/09 23:40:44;;;;;;;24.67;10.73;;;;;;;-145.67;100.00;66521.78;5056501;28;20001;-93
2023/10/09 23:43:29;;;;;;;24.98;11.25;;;;;;;-145.67;100.00;66521.78;5058549;28;20032;-91
2023/10/09 23:46:00;;;;;;;25.42;10.55;;;;;;;-145.67;100.00;66521.78;5043167;28;20115;-92
2023/10/09 23:48:32;;;;;;;22.20;10.45;;;;;;;-145.67;100.00;66521.78;5054718;28;20451;-91
2023/10/09 23:51:02;;;;;;;25.98;11.90;;;;;;;-145.67;100.00;66521.78;5038186;28;20035;-91
2023/10/09 23:53:35;;;;;;;25.70;12.05;;;;;;;-145.67;100.00;66521.78;5020840;28;20036;-91
2023/10/09 23:56:09;;;;;;;25.63;12.43;;;;;;;-145.67;100.00;66521.78;5022314;28;20061;-90
